Anderson, Pennsylvania
Current Conditions -  °F | °C
As of 6:53 AM on Thursday 23 Oct 2014 (Local Time) from KUNV Reporting Station
Overcast Overcast  
Wind Chill: 46°   Ceiling: 2300
Heat Index: 48°   Visibility: 10mi
Dew Point: 41°   Wind: 5mph
Humidity: 76%   Direction: 350°N
Pressure: 29.98"   Gusts: NA
Location:  40.544°N, 77.6033°W
Report Text: KUNV 231053Z 35004KT 10SM OVC023 09/05 A2998
Loading
Personal Weather Stations






























Interactive Weather Map New forecast layout! Learn more

10-Day Weather Forecast

Advertisements
Track Severe Weather on mobile